createdAt,value
2023-02-14T00:01:40.880Z,2.94
2023-02-14T00:04:09.644Z,2.92
2023-02-14T00:06:39.235Z,2.91
2023-02-14T00:09:18.823Z,2.90
2023-02-14T00:11:47.029Z,2.90
2023-02-14T00:14:35.449Z,2.89
2023-02-14T00:17:04.754Z,2.90
2023-02-14T00:19:34.912Z,2.91
2023-02-14T00:22:04.375Z,2.91
2023-02-14T00:24:32.400Z,2.93
2023-02-14T00:27:00.838Z,2.93
2023-02-14T00:29:31.776Z,2.93
2023-02-14T00:32:00.624Z,2.93
2023-02-14T00:34:29.268Z,2.94
2023-02-14T00:36:57.440Z,2.95
2023-02-14T00:39:25.497Z,2.96
2023-02-14T00:41:53.539Z,2.97
2023-02-14T00:44:21.834Z,2.97
2023-02-14T00:46:49.869Z,2.97
2023-02-14T00:49:18.138Z,2.97
2023-02-14T00:51:46.607Z,2.97
2023-02-14T00:54:14.812Z,2.96
2023-02-14T00:56:42.862Z,2.96
2023-02-14T00:59:10.950Z,2.96
2023-02-14T01:01:39.398Z,2.96
2023-02-14T01:04:08.134Z,2.97
2023-02-14T01:06:36.722Z,2.97
2023-02-14T01:09:04.892Z,2.98
2023-02-14T01:11:35.120Z,3.00
2023-02-14T01:14:03.509Z,3.00
2023-02-14T01:16:31.628Z,3.01
2023-02-14T01:19:01.101Z,3.02
2023-02-14T01:21:31.833Z,3.02
2023-02-14T01:24:06.762Z,3.03
2023-02-14T01:26:36.171Z,3.03
2023-02-14T01:29:05.270Z,3.03
2023-02-14T01:31:35.575Z,3.03
2023-02-14T01:34:04.845Z,3.03
2023-02-14T01:36:38.083Z,3.03
2023-02-14T01:39:10.559Z,3.03
2023-02-14T01:41:41.491Z,3.03
2023-02-14T01:44:15.926Z,3.04
2023-02-14T01:46:45.544Z,3.05
2023-02-14T01:49:26.309Z,3.05
2023-02-14T01:52:05.437Z,3.06
2023-02-14T01:54:38.429Z,3.06
2023-02-14T01:57:10.069Z,3.07
2023-02-14T01:59:43.695Z,3.08
2023-02-14T02:02:12.220Z,3.08
2023-02-14T02:04:45.571Z,3.09
2023-02-14T02:07:21.102Z,3.09
2023-02-14T02:10:00.755Z,3.09
2023-02-14T02:12:30.771Z,3.11
2023-02-14T02:15:01.420Z,3.12
2023-02-14T02:17:35.116Z,3.13
2023-02-14T02:20:14.342Z,3.14
2023-02-14T02:23:04.011Z,3.15
2023-02-14T02:25:38.141Z,3.15
2023-02-14T02:28:09.506Z,3.13
2023-02-14T02:30:51.245Z,3.14
2023-02-14T02:33:49.126Z,3.14
2023-02-14T02:36:42.172Z,3.14
2023-02-14T02:39:22.418Z,3.13
2023-02-14T02:42:04.948Z,3.13
2023-02-14T02:44:45.278Z,3.14
2023-02-14T02:47:22.568Z,3.14
2023-02-14T02:50:13.834Z,3.14
2023-02-14T02:53:15.310Z,3.17
2023-02-14T02:56:15.426Z,3.18
2023-02-14T02:58:46.471Z,3.17
2023-02-14T03:01:20.999Z,3.18
2023-02-14T03:04:14.663Z,3.19
2023-02-14T03:06:45.331Z,3.19
2023-02-14T03:09:33.517Z,3.18
2023-02-14T03:12:17.699Z,3.18
2023-02-14T03:14:57.405Z,3.18
2023-02-14T03:17:30.801Z,3.18
2023-02-14T03:20:18.418Z,3.19
2023-02-14T03:22:57.485Z,3.21
2023-02-14T03:25:34.737Z,3.22
2023-02-14T03:28:31.050Z,3.22
2023-02-14T03:31:45.053Z,3.24
2023-02-14T03:34:19.186Z,3.25
2023-02-14T03:36:59.646Z,3.25
2023-02-14T03:40:06.817Z,3.26
2023-02-14T03:42:50.645Z,3.27
2023-02-14T03:45:27.808Z,3.28
2023-02-14T03:48:00.826Z,3.29
2023-02-14T03:50:31.707Z,3.30
2023-02-14T03:53:01.605Z,3.31
2023-02-14T03:55:49.352Z,3.32
2023-02-14T03:58:24.665Z,3.32
2023-02-14T04:01:06.646Z,3.32
2023-02-14T04:03:39.406Z,3.33
2023-02-14T04:06:08.526Z,3.34
2023-02-14T04:08:36.708Z,3.35
2023-02-14T04:11:05.926Z,3.36
2023-02-14T04:13:37.258Z,3.38
2023-02-14T04:16:06.761Z,3.38
2023-02-14T04:18:53.591Z,3.40
2023-02-14T04:21:21.522Z,3.41
2023-02-14T04:23:49.850Z,3.44
2023-02-14T04:26:18.003Z,3.46
2023-02-14T04:28:45.966Z,3.46
2023-02-14T04:31:14.215Z,3.47
2023-02-14T04:33:42.338Z,3.49
2023-02-14T04:36:10.371Z,3.49
2023-02-14T04:38:38.492Z,3.49
2023-02-14T04:41:06.771Z,3.49
2023-02-14T04:43:35.055Z,3.52
2023-02-14T04:46:03.231Z,3.53
2023-02-14T04:48:31.349Z,3.53
2023-02-14T04:50:59.710Z,3.55
2023-02-14T04:53:28.083Z,3.55
2023-02-14T04:55:56.456Z,3.58
2023-02-14T04:58:24.629Z,3.59
2023-02-14T05:00:52.665Z,3.60
2023-02-14T05:03:20.886Z,3.61
2023-02-14T05:05:49.063Z,3.61
2023-02-14T05:08:18.125Z,3.61
2023-02-14T05:10:46.238Z,3.60
2023-02-14T05:13:14.648Z,3.61
2023-02-14T05:15:45.278Z,3.62
2023-02-14T05:18:13.268Z,3.62
2023-02-14T05:20:41.422Z,3.64
2023-02-14T05:23:13.836Z,3.65
2023-02-14T05:25:42.575Z,3.66
2023-02-14T05:28:11.063Z,3.67
2023-02-14T05:30:39.559Z,3.68
2023-02-14T05:33:07.708Z,3.69
2023-02-14T05:35:35.903Z,3.70
2023-02-14T05:38:04.850Z,3.70
2023-02-14T05:40:33.796Z,3.68
2023-02-14T05:43:01.976Z,3.69
2023-02-14T05:45:30.080Z,3.69
2023-02-14T05:47:58.347Z,3.70
2023-02-14T05:50:26.615Z,3.73
2023-02-14T05:52:56.130Z,3.74
2023-02-14T05:55:25.537Z,3.75
2023-02-14T05:57:53.630Z,3.75
2023-02-14T06:00:23.958Z,3.75
2023-02-14T06:02:52.010Z,3.75
2023-02-14T06:05:21.317Z,3.76
2023-02-14T06:07:52.669Z,3.77
2023-02-14T06:10:23.408Z,3.76
2023-02-14T06:12:54.048Z,3.77
2023-02-14T06:15:22.624Z,3.79
2023-02-14T06:17:52.882Z,3.79
2023-02-14T06:20:22.052Z,3.80
2023-02-14T06:22:50.572Z,3.82
2023-02-14T06:25:19.010Z,3.83
2023-02-14T06:27:49.273Z,3.84
2023-02-14T06:30:18.707Z,3.84
2023-02-14T06:32:46.836Z,3.84
2023-02-14T06:35:15.525Z,3.84
2023-02-14T06:37:45.453Z,3.84
2023-02-14T06:40:14.459Z,3.85
2023-02-14T06:42:42.620Z,3.85
2023-02-14T06:45:11.114Z,3.86
2023-02-14T06:47:39.189Z,3.85
2023-02-14T06:50:08.390Z,3.84
2023-02-14T06:52:36.463Z,3.82
2023-02-14T06:55:05.155Z,3.82
2023-02-14T06:57:33.133Z,3.83
2023-02-14T07:00:01.098Z,3.83
2023-02-14T07:02:29.216Z,3.83
2023-02-14T07:04:57.875Z,3.83
2023-02-14T07:07:26.143Z,3.83
2023-02-14T07:09:54.430Z,3.83
2023-02-14T07:12:22.404Z,3.83
2023-02-14T07:14:50.324Z,3.83
2023-02-14T07:17:18.468Z,3.83
2023-02-14T07:19:46.525Z,3.83
2023-02-14T07:22:14.763Z,3.83
2023-02-14T07:24:42.947Z,3.83
2023-02-14T07:27:10.964Z,3.82
2023-02-14T07:29:39.039Z,3.84
2023-02-14T07:32:07.460Z,3.84
2023-02-14T07:34:35.638Z,3.83
2023-02-14T07:37:03.677Z,3.84
2023-02-14T07:39:32.068Z,3.86
2023-02-14T07:42:00.349Z,3.85
2023-02-14T07:44:28.420Z,3.87
2023-02-14T07:46:56.804Z,3.88
2023-02-14T07:49:24.865Z,3.87
2023-02-14T07:51:52.959Z,3.87
2023-02-14T07:54:21.331Z,3.86
2023-02-14T07:56:49.785Z,3.87
2023-02-14T07:59:17.994Z,3.88
2023-02-14T08:01:46.104Z,3.90
2023-02-14T08:04:14.555Z,3.91
2023-02-14T08:06:43.445Z,3.92
2023-02-14T08:09:11.842Z,3.92
2023-02-14T08:11:58.952Z,3.92
2023-02-14T08:14:27.023Z,3.94
2023-02-14T08:16:55.023Z,3.94
2023-02-14T08:19:23.073Z,3.94
2023-02-14T08:21:51.134Z,3.94
2023-02-14T08:24:19.117Z,3.94
2023-02-14T08:26:47.228Z,3.94
2023-02-14T08:29:16.873Z,3.94
2023-02-14T08:31:45.885Z,3.93
2023-02-14T08:34:15.015Z,3.95
2023-02-14T08:36:43.499Z,3.96
2023-02-14T08:39:11.879Z,3.98
2023-02-14T08:41:39.948Z,4.00
2023-02-14T08:44:07.881Z,4.01
2023-02-14T08:46:36.273Z,4.03
2023-02-14T08:49:04.740Z,4.04
2023-02-14T08:51:32.868Z,4.04
2023-02-14T08:54:01.149Z,4.04
2023-02-14T08:56:29.134Z,4.05
2023-02-14T08:58:57.325Z,4.07
2023-02-14T09:01:25.446Z,4.08
2023-02-14T09:03:53.804Z,4.10
2023-02-14T09:06:21.823Z,4.11
2023-02-14T09:08:50.780Z,4.13
2023-02-14T09:11:22.630Z,4.14
2023-02-14T09:13:55.516Z,4.14
2023-02-14T09:16:25.013Z,4.16
2023-02-14T09:18:54.781Z,4.17
2023-02-14T09:21:26.685Z,4.19
2023-02-14T09:23:55.079Z,4.20
2023-02-14T09:26:23.070Z,4.21
2023-02-14T09:28:51.190Z,4.22
2023-02-14T09:31:21.740Z,4.23
2023-02-14T09:33:51.142Z,4.24
2023-02-14T09:36:19.219Z,4.26
2023-02-14T09:38:47.916Z,4.27
2023-02-14T09:41:48.127Z,4.28
2023-02-14T09:44:56.548Z,4.29
2023-02-14T09:47:43.122Z,4.30
2023-02-14T09:50:24.052Z,4.33
2023-02-14T09:52:57.383Z,4.33
2023-02-14T09:55:32.316Z,4.36
2023-02-14T09:58:00.401Z,4.35
2023-02-14T10:00:37.968Z,4.36
2023-02-14T10:03:42.060Z,4.37
2023-02-14T10:06:27.356Z,4.39
2023-02-14T10:09:01.323Z,4.40
2023-02-14T10:11:30.259Z,4.42
2023-02-14T10:14:01.929Z,4.43
2023-02-14T10:16:39.296Z,4.44
2023-02-14T10:19:14.139Z,4.45
2023-02-14T10:21:48.074Z,4.45
2023-02-14T10:24:38.290Z,4.47
2023-02-14T10:27:32.908Z,4.49
2023-02-14T10:30:03.110Z,4.52
2023-02-14T10:33:13.782Z,4.54
2023-02-14T10:35:48.950Z,4.55
2023-02-14T10:38:44.030Z,4.56
2023-02-14T10:41:49.346Z,4.57
2023-02-14T10:44:26.364Z,4.59
2023-02-14T10:46:57.885Z,4.60
2023-02-14T10:49:36.388Z,4.61
2023-02-14T10:52:38.132Z,4.64
2023-02-14T10:55:30.033Z,4.66
2023-02-14T10:58:04.990Z,4.69
2023-02-14T11:00:37.567Z,4.69
2023-02-14T11:03:08.610Z,4.72
2023-02-14T11:05:45.047Z,4.74
2023-02-14T11:08:22.571Z,4.77
2023-02-14T11:10:51.684Z,4.78
2023-02-14T11:13:39.429Z,4.79
2023-02-14T11:16:12.078Z,4.81
2023-02-14T11:18:41.472Z,4.83
2023-02-14T11:21:24.495Z,4.86
2023-02-14T11:23:52.779Z,4.88
2023-02-14T11:26:25.239Z,4.89
2023-02-14T11:29:01.342Z,4.90
2023-02-14T11:31:34.918Z,4.92
2023-02-14T11:34:23.040Z,4.93
2023-02-14T11:36:51.546Z,4.96
2023-02-14T11:39:32.584Z,4.97
2023-02-14T11:42:05.848Z,4.99
2023-02-14T11:44:37.044Z,5.00
2023-02-14T11:47:28.356Z,5.02
2023-02-14T11:49:57.973Z,5.05
2023-02-14T11:52:29.786Z,5.07
2023-02-14T11:54:58.908Z,5.09
2023-02-14T11:57:35.281Z,5.09
2023-02-14T12:00:16.076Z,5.11
2023-02-14T12:02:50.026Z,5.14
2023-02-14T12:05:47.709Z,5.17
2023-02-14T12:08:23.669Z,5.20
2023-02-14T12:11:22.670Z,5.23
2023-02-14T12:13:55.448Z,5.25
2023-02-14T12:16:35.497Z,5.25
2023-02-14T12:19:10.940Z,5.27
2023-02-14T12:22:03.001Z,5.28
2023-02-14T12:24:48.952Z,5.30
2023-02-14T12:28:04.105Z,5.32
2023-02-14T12:30:35.249Z,5.34
2023-02-14T12:33:06.077Z,5.34
2023-02-14T12:35:34.053Z,5.35
2023-02-14T12:38:29.338Z,5.35
2023-02-14T12:41:21.880Z,5.36
2023-02-14T12:43:53.862Z,5.38
2023-02-14T12:46:35.634Z,5.39
2023-02-14T12:49:03.818Z,5.42
2023-02-14T12:51:50.622Z,5.44
2023-02-14T12:54:52.674Z,5.47
2023-02-14T12:57:23.605Z,5.49
2023-02-14T13:00:04.785Z,5.50
2023-02-14T13:02:46.107Z,5.52
2023-02-14T13:05:41.565Z,5.54
2023-02-14T13:08:35.032Z,5.55
2023-02-14T13:11:21.002Z,5.56
2023-02-14T13:14:04.731Z,5.58
2023-02-14T13:16:41.922Z,5.59
2023-02-14T13:19:44.178Z,5.61
2023-02-14T13:22:18.191Z,5.64
2023-02-14T13:24:50.688Z,5.65
2023-02-14T13:27:23.352Z,5.68
2023-02-14T13:29:59.744Z,5.70
2023-02-14T13:32:33.418Z,5.71
2023-02-14T13:35:02.315Z,5.72
2023-02-14T13:37:31.700Z,5.73
2023-02-14T13:40:05.329Z,5.73
2023-02-14T13:42:49.047Z,5.75
2023-02-14T13:45:51.743Z,5.76
2023-02-14T13:48:23.083Z,5.77
2023-02-14T13:51:06.192Z,5.77
2023-02-14T13:53:46.776Z,5.80
2023-02-14T13:56:17.789Z,5.80
2023-02-14T13:58:48.835Z,5.80
2023-02-14T14:01:29.298Z,5.81
2023-02-14T14:04:03.950Z,5.81
2023-02-14T14:07:12.207Z,5.80
2023-02-14T14:09:43.312Z,5.80
2023-02-14T14:12:26.298Z,5.79
2023-02-14T14:15:06.828Z,5.80
2023-02-14T14:17:42.919Z,5.81
2023-02-14T14:20:16.824Z,5.82
2023-02-14T14:22:56.919Z,5.82
2023-02-14T14:25:38.337Z,5.82
2023-02-14T14:28:19.620Z,5.81
2023-02-14T14:30:48.698Z,5.80
2023-02-14T14:33:32.445Z,5.79
2023-02-14T14:36:21.409Z,5.79
2023-02-14T14:38:52.434Z,5.80
2023-02-14T14:41:28.930Z,5.80
2023-02-14T14:43:59.822Z,5.80
2023-02-14T14:46:28.026Z,5.81
2023-02-14T14:48:57.244Z,5.82
2023-02-14T14:51:32.385Z,5.82
2023-02-14T14:54:07.205Z,5.81
2023-02-14T14:56:39.884Z,5.79
2023-02-14T14:59:17.375Z,5.79
2023-02-14T15:01:46.579Z,5.79
2023-02-14T15:04:14.602Z,5.78
2023-02-14T15:06:42.940Z,5.79
2023-02-14T15:09:16.749Z,5.79
2023-02-14T15:12:05.495Z,5.78
2023-02-14T15:14:42.629Z,5.78
2023-02-14T15:17:32.905Z,5.77
2023-02-14T15:20:08.608Z,5.76
2023-02-14T15:22:46.220Z,5.76
2023-02-14T15:25:21.388Z,5.76
2023-02-14T15:27:50.487Z,5.74
2023-02-14T15:30:34.406Z,5.72
2023-02-14T15:33:04.838Z,5.72
2023-02-14T15:35:35.448Z,5.73
2023-02-14T15:38:07.072Z,5.74
2023-02-14T15:40:36.021Z,5.73
2023-02-14T15:43:22.191Z,5.73
2023-02-14T15:45:52.869Z,5.73
2023-02-14T15:48:23.863Z,5.72
2023-02-14T15:50:56.006Z,5.70
2023-02-14T15:53:44.686Z,5.70
2023-02-14T15:56:24.905Z,5.70
2023-02-14T15:59:00.530Z,5.68
2023-02-14T16:01:30.441Z,5.66
2023-02-14T16:04:02.566Z,5.67
2023-02-14T16:06:50.202Z,5.68
2023-02-14T16:09:29.825Z,5.69
2023-02-14T16:11:57.779Z,5.69
2023-02-14T16:14:35.489Z,5.67
2023-02-14T16:17:14.418Z,5.67
2023-02-14T16:19:45.678Z,5.66
2023-02-14T16:22:34.797Z,5.66
2023-02-14T16:25:02.796Z,5.67
2023-02-14T16:27:30.970Z,5.67
2023-02-14T16:29:59.314Z,5.67
2023-02-14T16:32:27.748Z,5.65
2023-02-14T16:34:55.813Z,5.64
2023-02-14T16:37:29.217Z,5.63
2023-02-14T16:40:00.149Z,5.62
2023-02-14T16:42:28.429Z,5.62
2023-02-14T16:44:58.044Z,5.61
2023-02-14T16:47:27.980Z,5.61
2023-02-14T16:49:56.248Z,5.60
2023-02-14T16:52:28.828Z,5.59
2023-02-14T16:54:57.323Z,5.59
2023-02-14T16:57:30.686Z,5.57
2023-02-14T16:59:58.802Z,5.56
2023-02-14T17:02:28.670Z,5.56
2023-02-14T17:04:57.312Z,5.56
2023-02-14T17:07:29.474Z,5.56
2023-02-14T17:10:03.529Z,5.57
2023-02-14T17:12:38.064Z,5.57
2023-02-14T17:15:13.027Z,5.57
2023-02-14T17:17:42.019Z,5.58
2023-02-14T17:20:11.110Z,5.59
2023-02-14T17:22:42.629Z,5.58
2023-02-14T17:25:11.375Z,5.58
2023-02-14T17:27:43.965Z,5.58
2023-02-14T17:30:13.740Z,5.59
2023-02-14T17:32:42.909Z,5.58
2023-02-14T17:35:12.095Z,5.58
2023-02-14T17:37:40.359Z,5.58
2023-02-14T17:40:09.993Z,5.58
2023-02-14T17:42:38.957Z,5.59
2023-02-14T17:45:08.549Z,5.59
2023-02-14T17:47:36.658Z,5.59
2023-02-14T17:50:05.444Z,5.58
2023-02-14T17:52:33.618Z,5.57
2023-02-14T17:55:01.697Z,5.57
2023-02-14T17:57:29.878Z,5.58
2023-02-14T17:59:58.766Z,5.58
2023-02-14T18:02:27.246Z,5.56
2023-02-14T18:04:55.303Z,5.56
2023-02-14T18:07:24.030Z,5.56
2023-02-14T18:09:52.384Z,5.55
2023-02-14T18:12:21.103Z,5.55
2023-02-14T18:14:49.405Z,5.55
2023-02-14T18:17:17.667Z,5.56
2023-02-14T18:19:46.871Z,5.56
2023-02-14T18:22:15.044Z,5.57
2023-02-14T18:24:43.234Z,5.56
2023-02-14T18:27:11.293Z,5.56
2023-02-14T18:29:39.683Z,5.57
2023-02-14T18:32:07.804Z,5.59
2023-02-14T18:34:38.246Z,5.58
2023-02-14T18:37:07.305Z,5.59
2023-02-14T18:39:35.268Z,5.59
2023-02-14T18:42:04.668Z,5.59
2023-02-14T18:44:33.675Z,5.59
2023-02-14T18:47:02.845Z,5.59
2023-02-14T18:49:31.247Z,5.59
2023-02-14T18:52:00.446Z,5.60
2023-02-14T18:54:28.437Z,5.60
2023-02-14T18:56:56.493Z,5.60
2023-02-14T18:59:25.298Z,5.60
2023-02-14T19:01:53.374Z,5.60
2023-02-14T19:04:21.733Z,5.61
2023-02-14T19:06:49.844Z,5.60
2023-02-14T19:09:18.831Z,5.60
2023-02-14T19:11:47.026Z,5.61
2023-02-14T19:14:15.389Z,5.61
2023-02-14T19:16:51.165Z,5.61
2023-02-14T19:19:20.082Z,5.61
2023-02-14T19:21:48.593Z,5.61
2023-02-14T19:24:18.649Z,5.61
2023-02-14T19:26:47.346Z,5.61
2023-02-14T19:29:18.097Z,5.61
2023-02-14T19:31:49.955Z,5.61
2023-02-14T19:34:21.026Z,5.61
2023-02-14T19:36:51.761Z,5.61
2023-02-14T19:39:21.418Z,5.61
2023-02-14T19:41:49.917Z,5.61
2023-02-14T19:44:18.805Z,5.62
2023-02-14T19:46:47.786Z,5.61
2023-02-14T19:49:19.306Z,5.61
2023-02-14T19:51:49.005Z,5.62
2023-02-14T19:54:17.360Z,5.63
2023-02-14T19:56:46.982Z,5.63
2023-02-14T19:59:20.218Z,5.63
2023-02-14T20:01:54.849Z,5.62
2023-02-14T20:04:25.926Z,5.62
2023-02-14T20:06:54.648Z,5.62
2023-02-14T20:09:23.709Z,5.60
2023-02-14T20:11:56.925Z,5.60
2023-02-14T20:14:35.960Z,5.59
2023-02-14T20:17:08.942Z,5.59
2023-02-14T20:19:38.005Z,5.60
2023-02-14T20:22:08.291Z,5.61
2023-02-14T20:24:36.518Z,5.61
2023-02-14T20:27:05.231Z,5.61
2023-02-14T20:29:33.299Z,5.60
2023-02-14T20:32:03.761Z,5.60
2023-02-14T20:34:32.012Z,5.61
2023-02-14T20:37:00.497Z,5.61
2023-02-14T20:39:31.626Z,5.61
2023-02-14T20:42:01.258Z,5.61
2023-02-14T20:44:29.948Z,5.62
2023-02-14T20:46:58.255Z,5.61
2023-02-14T20:49:28.270Z,5.62
2023-02-14T20:51:56.959Z,5.62
2023-02-14T20:54:27.524Z,5.60
2023-02-14T20:56:56.068Z,5.60
2023-02-14T20:59:27.175Z,5.60
2023-02-14T21:01:57.155Z,5.61
2023-02-14T21:04:26.044Z,5.60
2023-02-14T21:06:54.621Z,5.59
2023-02-14T21:09:22.689Z,5.58
2023-02-14T21:11:53.421Z,5.58
2023-02-14T21:14:21.458Z,5.58
2023-02-14T21:16:49.773Z,5.57
2023-02-14T21:19:18.284Z,5.54
2023-02-14T21:21:46.337Z,5.54
2023-02-14T21:24:16.002Z,5.52
2023-02-14T21:26:44.857Z,5.52
2023-02-14T21:29:12.933Z,5.53
2023-02-14T21:31:42.481Z,5.54
2023-02-14T21:34:11.130Z,5.54
2023-02-14T21:36:39.199Z,5.53
2023-02-14T21:39:07.790Z,5.52
2023-02-14T21:41:36.792Z,5.51
2023-02-14T21:44:06.375Z,5.51
2023-02-14T21:46:38.684Z,5.50
2023-02-14T21:49:25.697Z,5.50
2023-02-14T21:51:53.890Z,5.49
2023-02-14T21:54:22.157Z,5.48
2023-02-14T21:56:50.122Z,5.48
2023-02-14T21:59:18.390Z,5.49
2023-02-14T22:01:46.583Z,5.51
2023-02-14T22:04:15.067Z,5.51
2023-02-14T22:06:43.956Z,5.50
2023-02-14T22:09:14.022Z,5.52
2023-02-14T22:11:42.569Z,5.57
2023-02-14T22:14:11.216Z,5.62
2023-02-14T22:16:39.943Z,5.68
2023-02-14T22:19:12.722Z,5.73
2023-02-14T22:21:41.835Z,5.78
2023-02-14T22:24:09.868Z,5.82
2023-02-14T22:26:43.714Z,5.85
2023-02-14T22:29:12.827Z,5.88
2023-02-14T22:31:43.566Z,5.90
2023-02-14T22:34:14.573Z,5.90
2023-02-14T22:36:42.611Z,5.90
2023-02-14T22:39:14.056Z,5.90
2023-02-14T22:41:42.534Z,5.90
2023-02-14T22:44:10.799Z,5.89
2023-02-14T22:46:38.919Z,5.89
2023-02-14T22:49:08.072Z,5.88
2023-02-14T22:51:43.596Z,5.86
2023-02-14T22:54:15.194Z,5.83
2023-02-14T22:56:45.696Z,5.83
2023-02-14T22:59:21.164Z,5.80
2023-02-14T23:01:51.198Z,5.80
2023-02-14T23:04:25.062Z,5.78
2023-02-14T23:06:54.069Z,5.76
2023-02-14T23:09:23.553Z,5.74
2023-02-14T23:11:52.175Z,5.73
2023-02-14T23:14:39.889Z,5.71
2023-02-14T23:17:25.986Z,5.70
2023-02-14T23:20:12.752Z,5.69
2023-02-14T23:22:41.369Z,5.67
2023-02-14T23:25:12.354Z,5.66
2023-02-14T23:27:47.235Z,5.65
2023-02-14T23:30:17.813Z,5.65
2023-02-14T23:32:45.851Z,5.65
2023-02-14T23:35:14.123Z,5.64
2023-02-14T23:37:42.188Z,5.63
2023-02-14T23:40:10.696Z,5.62
2023-02-14T23:42:39.180Z,5.61
2023-02-14T23:45:26.632Z,5.61
2023-02-14T23:47:54.733Z,5.61
2023-02-14T23:50:22.860Z,5.61
2023-02-14T23:52:51.246Z,5.61
2023-02-14T23:55:19.517Z,5.61
2023-02-14T23:57:47.638Z,5.62
